createdAt,value
2023-04-23T00:01:44.996Z,2.45
2023-04-23T00:04:19.581Z,2.37
2023-04-23T00:06:50.966Z,2.48
2023-04-23T00:09:22.235Z,2.55
2023-04-23T00:11:53.549Z,2.61
2023-04-23T00:14:24.963Z,2.65
2023-04-23T00:16:56.570Z,2.84
2023-04-23T00:19:30.083Z,2.99
2023-04-23T00:22:00.789Z,3.13
2023-04-23T00:24:32.329Z,3.26
2023-04-23T00:27:03.117Z,3.39
2023-04-23T00:29:33.896Z,3.51
2023-04-23T00:32:05.058Z,3.63
2023-04-23T00:34:38.526Z,3.71
2023-04-23T00:37:09.267Z,3.81
2023-04-23T00:39:41.077Z,3.90
2023-04-23T00:42:14.182Z,3.97
2023-04-23T00:44:46.739Z,4.05
2023-04-23T00:47:18.386Z,4.11
2023-04-23T00:49:55.915Z,4.18
2023-04-23T00:52:26.618Z,4.23
2023-04-23T00:54:57.435Z,4.27
2023-04-23T00:57:28.810Z,4.32
2023-04-23T01:00:00.055Z,4.34
2023-04-23T01:02:32.590Z,4.36
2023-04-23T01:05:08.112Z,4.38
2023-04-23T01:07:39.000Z,4.40
2023-04-23T01:10:11.511Z,4.40
2023-04-23T01:12:42.320Z,4.40
2023-04-23T01:15:14.045Z,4.42
2023-04-23T01:17:44.740Z,4.42
2023-04-23T01:20:18.288Z,4.43
2023-04-23T01:22:51.580Z,4.41
2023-04-23T01:25:22.657Z,4.45
2023-04-23T01:27:53.470Z,4.45
2023-04-23T01:30:25.145Z,4.46
2023-04-23T01:32:57.438Z,4.45
2023-04-23T01:35:29.097Z,4.44
2023-04-23T01:38:03.862Z,4.44
2023-04-23T01:40:34.706Z,4.41
2023-04-23T01:43:05.577Z,4.40
2023-04-23T01:45:36.604Z,4.38
2023-04-23T01:48:07.727Z,4.34
2023-04-23T01:50:38.839Z,4.30
2023-04-23T01:53:12.205Z,4.27
2023-04-23T01:55:44.460Z,4.25
2023-04-23T01:58:15.196Z,4.22
2023-04-23T02:00:46.238Z,4.18
2023-04-23T02:03:17.170Z,4.15
2023-04-23T02:05:48.100Z,4.12
2023-04-23T02:08:21.452Z,4.11
2023-04-23T02:10:52.307Z,4.09
2023-04-23T02:13:23.220Z,4.07
2023-04-23T02:15:54.208Z,4.04
2023-04-23T02:18:25.084Z,4.01
2023-04-23T02:20:57.839Z,3.99
2023-04-23T02:23:31.354Z,3.96
2023-04-23T02:26:02.113Z,3.92
2023-04-23T02:28:32.923Z,3.90
2023-04-23T02:31:03.729Z,3.89
2023-04-23T02:33:34.495Z,3.87
2023-04-23T02:36:05.768Z,3.85
2023-04-23T02:38:41.872Z,3.83
2023-04-23T02:41:12.612Z,3.79
2023-04-23T02:43:43.540Z,3.77
2023-04-23T02:46:14.362Z,3.75
2023-04-23T02:48:45.427Z,3.72
2023-04-23T02:51:17.122Z,3.70
2023-04-23T02:53:50.850Z,3.66
2023-04-23T02:56:21.610Z,3.61
2023-04-23T02:58:52.723Z,3.58
2023-04-23T03:01:24.206Z,3.53
2023-04-23T03:03:55.350Z,3.50
2023-04-23T03:06:26.598Z,3.46
2023-04-23T03:09:00.046Z,3.45
2023-04-23T03:11:31.270Z,3.41
2023-04-23T03:14:02.448Z,3.39
2023-04-23T03:16:34.366Z,3.36
2023-04-23T03:19:05.482Z,3.26
2023-04-23T03:21:36.431Z,3.33
2023-04-23T03:24:10.437Z,3.29
2023-04-23T03:26:41.275Z,3.28
2023-04-23T03:29:13.292Z,3.27
2023-04-23T03:31:44.208Z,3.23
2023-04-23T03:34:15.308Z,3.20
2023-04-23T03:36:48.948Z,3.19
2023-04-23T03:39:23.352Z,3.19
2023-04-23T03:41:58.467Z,3.18
2023-04-23T03:44:32.619Z,3.18
2023-04-23T03:47:04.117Z,3.18
2023-04-23T03:49:36.777Z,3.19
2023-04-23T03:52:07.749Z,3.19
2023-04-23T03:54:44.786Z,3.20
2023-04-23T03:57:22.220Z,3.20
2023-04-23T04:00:15.096Z,3.20
2023-04-23T04:02:46.981Z,3.21
2023-04-23T04:05:18.193Z,3.22
2023-04-23T04:07:49.653Z,3.23
2023-04-23T04:10:24.079Z,3.26
2023-04-23T04:12:55.578Z,3.31
2023-04-23T04:15:26.615Z,3.34
2023-04-23T04:17:57.301Z,3.40
2023-04-23T04:20:29.093Z,3.47
2023-04-23T04:22:59.848Z,3.52
2023-04-23T04:25:33.597Z,3.60
2023-04-23T04:28:05.412Z,3.69
2023-04-23T04:30:36.242Z,3.77
2023-04-23T04:33:07.072Z,3.87
2023-04-23T04:35:38.268Z,3.99
2023-04-23T04:38:09.207Z,4.11
2023-04-23T04:40:42.634Z,4.23
2023-04-23T04:43:13.366Z,4.36
2023-04-23T04:45:45.134Z,4.47
2023-04-23T04:48:15.841Z,4.60
2023-04-23T04:50:46.849Z,4.74
2023-04-23T04:53:17.505Z,4.86
2023-04-23T04:55:50.854Z,4.99
2023-04-23T04:58:21.834Z,5.08
2023-04-23T05:00:53.855Z,5.24
2023-04-23T05:03:25.002Z,5.49
2023-04-23T05:05:56.719Z,5.76
2023-04-23T05:08:27.502Z,6.08
2023-04-23T05:11:01.172Z,6.49
2023-04-23T05:13:32.010Z,6.93
2023-04-23T05:16:02.769Z,7.40
2023-04-23T05:18:33.618Z,7.90
2023-04-23T05:21:04.514Z,8.44
2023-04-23T05:23:35.432Z,9.01
2023-04-23T05:26:08.935Z,9.57
2023-04-23T05:28:39.918Z,10.06
2023-04-23T05:31:10.707Z,10.55
2023-04-23T05:33:49.852Z,11.03
2023-04-23T05:36:21.478Z,11.51
2023-04-23T05:38:52.147Z,11.98
2023-04-23T05:41:27.428Z,12.39
2023-04-23T05:43:58.542Z,12.76
2023-04-23T05:46:29.710Z,13.13
2023-04-23T05:49:00.574Z,13.51
2023-04-23T05:51:31.363Z,13.90
2023-04-23T05:54:02.090Z,14.31
2023-04-23T05:56:35.562Z,14.77
2023-04-23T05:59:06.526Z,15.22
2023-04-23T06:01:37.369Z,15.64
2023-04-23T06:04:08.351Z,16.08
2023-04-23T06:06:39.638Z,16.48
2023-04-23T06:09:10.342Z,16.84
2023-04-23T06:11:43.821Z,17.12
2023-04-23T06:14:15.038Z,17.34
2023-04-23T06:16:45.810Z,17.57
2023-04-23T06:19:16.937Z,17.81
2023-04-23T06:21:47.902Z,17.98
2023-04-23T06:24:18.665Z,18.12
2023-04-23T06:26:52.196Z,18.27
2023-04-23T06:29:24.932Z,18.48
2023-04-23T06:32:05.473Z,18.61
2023-04-23T06:34:37.430Z,18.92
2023-04-23T06:37:12.595Z,19.27
2023-04-23T06:39:43.461Z,19.42
2023-04-23T06:42:16.966Z,19.56
2023-04-23T06:44:53.520Z,19.70
2023-04-23T06:47:24.342Z,19.92
2023-04-23T06:49:55.325Z,20.26
2023-04-23T06:52:26.073Z,20.56
2023-04-23T06:54:56.846Z,20.93
2023-04-23T06:57:30.240Z,21.36
2023-04-23T07:00:00.969Z,21.65
2023-04-23T07:02:39.069Z,21.79
2023-04-23T07:05:10.769Z,22.03
2023-04-23T07:07:43.636Z,22.41
2023-04-23T07:10:17.456Z,22.79
2023-04-23T07:12:53.142Z,23.02
2023-04-23T07:15:24.142Z,23.19
2023-04-23T07:17:55.014Z,23.46
2023-04-23T07:20:26.646Z,23.82
2023-04-23T07:22:57.491Z,24.24
2023-04-23T07:25:28.327Z,24.64
2023-04-23T07:28:01.747Z,25.05
2023-04-23T07:30:34.190Z,25.41
2023-04-23T07:33:05.223Z,25.67
2023-04-23T07:35:36.037Z,25.89
2023-04-23T07:38:07.572Z,25.97
2023-04-23T07:40:38.266Z,26.17
2023-04-23T07:43:11.727Z,26.40
2023-04-23T07:45:42.462Z,26.68
2023-04-23T07:48:13.581Z,26.87
2023-04-23T07:50:44.390Z,26.91
2023-04-23T07:53:15.320Z,26.94
2023-04-23T07:55:46.036Z,27.15
2023-04-23T07:58:19.489Z,27.52
2023-04-23T08:00:50.407Z,27.77
2023-04-23T08:03:21.626Z,27.95
2023-04-23T08:05:52.586Z,27.75
2023-04-23T08:08:23.492Z,27.57
2023-04-23T08:10:54.186Z,27.54
2023-04-23T08:13:27.720Z,27.52
2023-04-23T08:15:58.482Z,27.42
2023-04-23T08:18:29.271Z,27.15
2023-04-23T08:21:00.494Z,26.89
2023-04-23T08:23:31.559Z,26.62
2023-04-23T08:26:03.171Z,26.46
2023-04-23T08:28:36.457Z,26.46
2023-04-23T08:31:19.000Z,26.49
2023-04-23T08:33:56.232Z,26.66
2023-04-23T08:36:27.883Z,26.82
2023-04-23T08:38:58.718Z,26.98
2023-04-23T08:41:36.198Z,27.18
2023-04-23T08:44:15.370Z,27.18
2023-04-23T08:46:47.578Z,27.06
2023-04-23T08:49:19.658Z,26.82
2023-04-23T08:51:53.670Z,26.73
2023-04-23T08:54:29.941Z,26.68
2023-04-23T08:57:02.322Z,26.71
2023-04-23T08:59:35.885Z,26.71
2023-04-23T09:02:10.423Z,26.72
2023-04-23T09:04:41.313Z,26.50
2023-04-23T09:07:12.928Z,26.07
2023-04-23T09:09:44.453Z,25.47
2023-04-23T09:12:15.865Z,24.83
2023-04-23T09:14:49.239Z,24.26
2023-04-23T09:17:21.583Z,23.80
2023-04-23T09:19:54.406Z,23.38
2023-04-23T09:22:46.198Z,23.04
2023-04-23T09:25:19.590Z,22.73
2023-04-23T09:27:52.604Z,22.49
2023-04-23T09:30:27.806Z,22.28
2023-04-23T09:32:58.770Z,22.10
2023-04-23T09:35:31.655Z,21.95
2023-04-23T09:38:06.408Z,21.72
2023-04-23T09:40:38.243Z,21.53
2023-04-23T09:43:10.053Z,21.37
2023-04-23T09:45:51.518Z,21.21
2023-04-23T09:48:24.092Z,21.17
2023-04-23T09:50:58.435Z,21.12
2023-04-23T09:53:30.182Z,21.06
2023-04-23T09:56:01.041Z,21.00
2023-04-23T09:58:31.892Z,21.00
2023-04-23T10:01:13.359Z,20.97
2023-04-23T10:03:46.233Z,20.94
2023-04-23T10:06:39.700Z,20.90
2023-04-23T10:09:10.228Z,20.87
2023-04-23T10:11:41.369Z,20.82
2023-04-23T10:14:12.858Z,20.77
2023-04-23T10:16:49.851Z,20.66
2023-04-23T10:19:23.467Z,20.50
2023-04-23T10:22:08.648Z,20.30
2023-04-23T10:24:56.658Z,20.13
2023-04-23T10:27:44.633Z,20.01
2023-04-23T10:30:20.225Z,19.88
2023-04-23T10:32:54.409Z,19.71
2023-04-23T10:35:25.158Z,19.69
2023-04-23T10:37:56.699Z,19.61
2023-04-23T10:40:33.689Z,19.55
2023-04-23T10:43:05.021Z,19.47
2023-04-23T10:45:35.736Z,19.42
2023-04-23T10:48:09.197Z,19.37
2023-04-23T10:51:00.293Z,19.35
2023-04-23T10:53:35.117Z,19.34
2023-04-23T10:56:10.517Z,19.36
2023-04-23T10:58:53.577Z,19.39
2023-04-23T11:01:27.960Z,19.44
2023-04-23T11:04:01.653Z,19.49
2023-04-23T11:07:07.334Z,19.56
2023-04-23T11:09:44.591Z,19.62
2023-04-23T11:12:17.285Z,19.68
2023-04-23T11:14:51.746Z,19.73
2023-04-23T11:17:26.496Z,19.75
2023-04-23T11:20:14.539Z,19.77
2023-04-23T11:22:46.664Z,19.72
2023-04-23T11:25:19.461Z,19.72
2023-04-23T11:27:51.574Z,19.73
2023-04-23T11:30:24.308Z,19.74
2023-04-23T11:32:57.554Z,19.74
2023-04-23T11:35:39.890Z,19.78
2023-04-23T11:38:12.290Z,19.86
2023-04-23T11:40:43.533Z,19.95
2023-04-23T11:43:15.032Z,20.03
2023-04-23T11:45:46.603Z,20.11
2023-04-23T11:48:17.305Z,20.16
2023-04-23T11:50:50.808Z,20.20
2023-04-23T11:53:21.972Z,20.19
2023-04-23T11:55:52.753Z,20.17
2023-04-23T11:58:23.492Z,20.17
2023-04-23T12:01:02.517Z,20.15
2023-04-23T12:03:33.614Z,20.13
2023-04-23T12:06:08.056Z,20.10
2023-04-23T12:08:43.264Z,20.08
2023-04-23T12:11:15.636Z,20.02
2023-04-23T12:13:48.473Z,19.97
2023-04-23T12:16:19.307Z,19.93
2023-04-23T12:18:50.014Z,19.90
2023-04-23T12:21:25.986Z,19.79
2023-04-23T12:23:57.093Z,19.70
2023-04-23T12:26:29.808Z,19.56
2023-04-23T12:29:02.670Z,19.45
2023-04-23T12:31:33.660Z,19.36
2023-04-23T12:34:06.733Z,19.27
2023-04-23T12:36:41.489Z,19.17
2023-04-23T12:39:34.710Z,19.15
2023-04-23T12:42:08.449Z,19.15
2023-04-23T12:44:40.800Z,19.19
2023-04-23T12:47:15.446Z,19.21
2023-04-23T12:49:46.217Z,19.24
2023-04-23T12:52:19.770Z,19.28
2023-04-23T12:54:52.450Z,19.30
2023-04-23T12:57:24.810Z,19.30
2023-04-23T12:59:55.788Z,19.30
2023-04-23T13:02:28.344Z,19.27
2023-04-23T13:05:01.530Z,19.27
2023-04-23T13:07:36.805Z,19.23
2023-04-23T13:10:08.059Z,19.17
2023-04-23T13:12:39.044Z,19.13
2023-04-23T13:15:13.041Z,19.05
2023-04-23T13:17:44.257Z,18.97
2023-04-23T13:20:15.162Z,18.90
2023-04-23T13:22:48.702Z,18.81
2023-04-23T13:25:19.740Z,18.72
2023-04-23T13:27:50.683Z,18.60
2023-04-23T13:30:21.421Z,18.48
2023-04-23T13:32:52.154Z,18.39
2023-04-23T13:35:23.068Z,18.31
2023-04-23T13:37:56.557Z,18.27
2023-04-23T13:40:27.242Z,18.22
2023-04-23T13:42:58.090Z,18.20
2023-04-23T13:45:29.789Z,18.19
2023-04-23T13:48:02.685Z,18.21
2023-04-23T13:50:33.650Z,18.27
2023-04-23T13:53:07.229Z,18.29
2023-04-23T13:55:38.113Z,18.27
2023-04-23T13:58:12.198Z,18.27
2023-04-23T14:00:43.241Z,18.29
2023-04-23T14:03:14.233Z,18.30
2023-04-23T14:05:45.126Z,18.32
2023-04-23T14:08:18.522Z,18.33
2023-04-23T14:10:49.581Z,18.29
2023-04-23T14:13:20.393Z,18.27
2023-04-23T14:15:51.189Z,18.23
2023-04-23T14:18:22.078Z,18.15
2023-04-23T14:20:52.957Z,18.07
2023-04-23T14:23:52.466Z,17.97
2023-04-23T14:29:14.258Z,17.69
2023-04-23T14:31:44.900Z,17.53
2023-04-23T14:34:15.805Z,17.40
2023-04-23T14:36:49.558Z,17.29
2023-04-23T14:39:26.166Z,17.20
2023-04-23T14:41:56.991Z,17.12
2023-04-23T14:44:28.027Z,17.05
2023-04-23T14:46:59.350Z,16.99
2023-04-23T14:49:30.281Z,16.92
2023-04-23T14:52:01.095Z,16.78
2023-04-23T14:54:36.555Z,16.79
2023-04-23T14:57:07.845Z,16.74
2023-04-23T14:59:38.738Z,16.68
2023-04-23T15:02:09.783Z,16.62
2023-04-23T15:04:40.708Z,16.55
2023-04-23T15:07:11.648Z,16.53
2023-04-23T15:09:45.049Z,16.49
2023-04-23T15:12:45.492Z,16.46
2023-04-23T15:15:36.915Z,16.45
2023-04-23T15:18:14.621Z,16.46
2023-04-23T15:20:45.557Z,16.46
2023-04-23T15:23:16.388Z,16.47
2023-04-23T15:25:49.811Z,16.49
2023-04-23T15:28:21.264Z,16.50
2023-04-23T15:30:52.187Z,16.52
2023-04-23T15:33:23.165Z,16.53
2023-04-23T15:35:53.974Z,16.55
2023-04-23T15:38:24.709Z,16.56
2023-04-23T15:40:59.119Z,16.57
2023-04-23T15:43:30.495Z,16.58
2023-04-23T15:46:01.809Z,16.58
2023-04-23T15:48:32.647Z,16.58
2023-04-23T15:51:03.618Z,16.57
2023-04-23T15:53:34.527Z,16.55
2023-04-23T15:56:07.970Z,16.54
2023-04-23T15:58:38.664Z,16.53
2023-04-23T16:01:10.287Z,16.53
2023-04-23T16:03:44.042Z,16.50
2023-04-23T16:06:21.188Z,16.46
2023-04-23T16:08:51.952Z,16.45
2023-04-23T16:11:27.919Z,16.43
2023-04-23T16:13:58.966Z,16.39
2023-04-23T16:16:31.134Z,16.36
2023-04-23T16:19:02.321Z,16.33
2023-04-23T16:21:33.059Z,16.29
2023-04-23T16:24:04.218Z,16.26
2023-04-23T16:26:37.795Z,16.21
2023-04-23T16:29:21.366Z,16.16
2023-04-23T16:31:53.142Z,16.11
2023-04-23T16:34:23.886Z,16.07
2023-04-23T16:36:54.831Z,16.03
2023-04-23T16:39:25.591Z,15.98
2023-04-23T16:41:59.020Z,15.94
2023-04-23T16:44:29.843Z,15.91
2023-04-23T16:47:00.714Z,15.88
2023-04-23T16:49:31.571Z,15.86
2023-04-23T16:52:03.768Z,15.82
2023-04-23T16:54:36.453Z,15.79
2023-04-23T16:57:09.842Z,15.75
2023-04-23T16:59:41.189Z,15.72
2023-04-23T17:02:12.120Z,15.66
2023-04-23T17:04:43.359Z,15.61
2023-04-23T17:07:14.546Z,15.58
2023-04-23T17:09:45.300Z,15.49
2023-04-23T17:12:19.008Z,15.43
2023-04-23T17:14:49.733Z,15.38
2023-04-23T17:17:20.472Z,15.30
2023-04-23T17:19:51.431Z,15.25
2023-04-23T17:22:22.240Z,15.20
2023-04-23T17:24:53.108Z,15.16
2023-04-23T17:27:26.764Z,15.09
2023-04-23T17:29:57.534Z,15.04
2023-04-23T17:32:28.456Z,14.98
2023-04-23T17:35:09.488Z,14.90
2023-04-23T17:37:41.312Z,14.81
2023-04-23T17:40:13.730Z,14.64
2023-04-23T17:42:47.062Z,14.65
2023-04-23T17:45:18.818Z,14.57
2023-04-23T17:47:49.894Z,14.46
2023-04-23T17:50:20.765Z,14.38
2023-04-23T17:52:51.871Z,14.29
2023-04-23T17:55:23.567Z,14.18
2023-04-23T17:57:57.283Z,14.06
2023-04-23T18:00:29.052Z,13.95
2023-04-23T18:03:00.835Z,13.85
2023-04-23T18:05:31.865Z,13.72
2023-04-23T18:08:02.919Z,13.43
2023-04-23T18:10:33.744Z,12.50
2023-04-23T18:13:11.924Z,11.30
2023-04-23T18:15:42.609Z,10.41
2023-04-23T18:18:13.481Z,10.17
2023-04-23T18:20:44.424Z,10.11
2023-04-23T18:23:15.452Z,10.16
2023-04-23T18:25:46.350Z,10.23
2023-04-23T18:28:19.700Z,10.41
2023-04-23T18:30:50.482Z,10.53
2023-04-23T18:33:39.098Z,10.66
2023-04-23T18:36:23.027Z,10.79
2023-04-23T18:38:53.826Z,10.85
2023-04-23T18:41:24.507Z,10.90
2023-04-23T18:44:00.050Z,10.90
2023-04-23T18:46:31.897Z,10.93
2023-04-23T18:49:07.357Z,10.95
2023-04-23T18:51:41.071Z,10.97
2023-04-23T18:54:15.162Z,10.95
2023-04-23T18:56:45.917Z,10.84
2023-04-23T18:59:20.067Z,10.79
2023-04-23T19:01:50.929Z,10.68
2023-04-23T19:04:21.860Z,10.55
2023-04-23T19:06:52.746Z,10.50
2023-04-23T19:09:24.051Z,10.35
2023-04-23T19:11:55.004Z,10.40
2023-04-23T19:14:28.444Z,10.36
2023-04-23T19:16:59.236Z,10.33
2023-04-23T19:19:32.358Z,10.31
2023-04-23T19:22:04.144Z,10.30
2023-04-23T19:24:35.265Z,10.28
2023-04-23T19:27:07.151Z,10.30
2023-04-23T19:29:41.377Z,10.31
2023-04-23T19:32:12.339Z,10.33
2023-04-23T19:34:43.169Z,10.36
2023-04-23T19:37:13.877Z,10.45
2023-04-23T19:39:44.775Z,10.48
2023-04-23T19:42:15.612Z,10.53
2023-04-23T19:44:50.073Z,10.52
2023-04-23T19:47:20.850Z,10.55
2023-04-23T19:49:51.716Z,10.53
2023-04-23T19:52:26.135Z,10.52
2023-04-23T19:54:57.074Z,10.53
2023-04-23T19:57:27.803Z,10.54
2023-04-23T20:00:01.936Z,10.47
2023-04-23T20:02:38.763Z,10.45
2023-04-23T20:05:11.646Z,10.38
2023-04-23T20:07:42.451Z,10.40
2023-04-23T20:10:15.705Z,10.28
2023-04-23T20:12:47.682Z,10.05
2023-04-23T20:15:24.628Z,10.05
2023-04-23T20:17:55.773Z,9.93
2023-04-23T20:20:26.722Z,10.00
2023-04-23T20:22:57.628Z,9.97
2023-04-23T20:25:28.562Z,10.02
2023-04-23T20:27:59.937Z,9.99
2023-04-23T20:30:33.314Z,10.06
2023-04-23T20:33:04.033Z,10.04
2023-04-23T20:35:35.758Z,10.10
2023-04-23T20:38:06.598Z,10.03
2023-04-23T20:40:37.508Z,9.90
2023-04-23T20:43:08.754Z,9.96
2023-04-23T20:45:43.354Z,9.94
2023-04-23T20:48:14.646Z,9.98
2023-04-23T20:50:45.468Z,9.95
2023-04-23T20:53:16.319Z,10.02
2023-04-23T20:55:47.402Z,9.95
2023-04-23T20:58:18.297Z,10.00
2023-04-23T21:00:51.689Z,10.11
2023-04-23T21:03:22.661Z,10.28
2023-04-23T21:05:54.143Z,10.45
2023-04-23T21:08:24.804Z,10.58
2023-04-23T21:10:55.659Z,10.65
2023-04-23T21:13:26.893Z,10.67
2023-04-23T21:16:00.442Z,10.75
2023-04-23T21:18:31.230Z,10.80
2023-04-23T21:21:02.321Z,10.86
2023-04-23T21:23:33.221Z,10.91
2023-04-23T21:26:03.938Z,10.92
2023-04-23T21:28:35.029Z,10.93
2023-04-23T21:31:16.496Z,10.93
2023-04-23T21:33:47.298Z,10.94
2023-04-23T21:36:18.083Z,10.93
2023-04-23T21:38:48.756Z,10.96
2023-04-23T21:41:19.535Z,10.96
2023-04-23T21:43:50.268Z,11.01
2023-04-23T21:46:24.417Z,11.07
2023-04-23T21:48:55.203Z,10.95
2023-04-23T21:51:26.514Z,10.67
2023-04-23T21:53:57.304Z,10.42
2023-04-23T21:56:28.210Z,10.33
2023-04-23T21:58:59.365Z,10.44
2023-04-23T22:01:34.368Z,10.40
2023-04-23T22:04:08.912Z,10.45
2023-04-23T22:06:41.889Z,10.54
2023-04-23T22:09:13.289Z,10.44
2023-04-23T22:11:55.282Z,10.29
2023-04-23T22:14:32.605Z,10.23
2023-04-23T22:17:09.409Z,10.28
2023-04-23T22:19:40.699Z,10.31
2023-04-23T22:22:11.724Z,10.39
2023-04-23T22:24:42.672Z,10.41
2023-04-23T22:27:13.649Z,10.43
2023-04-23T22:29:44.770Z,10.44
2023-04-23T22:32:18.287Z,10.45
2023-04-23T22:34:49.221Z,10.45
2023-04-23T22:37:20.149Z,10.45
2023-04-23T22:39:51.098Z,10.34
2023-04-23T22:42:21.826Z,10.31
2023-04-23T22:44:52.551Z,10.29
2023-04-23T22:47:26.172Z,10.31
2023-04-23T22:49:57.498Z,10.29
2023-04-23T22:52:28.871Z,10.32
2023-04-23T22:54:59.857Z,10.31
2023-04-23T22:57:31.057Z,10.30
2023-04-23T23:00:02.035Z,10.30
2023-04-23T23:02:38.338Z,10.20
2023-04-23T23:05:12.847Z,10.20
2023-04-23T23:07:46.818Z,10.16
2023-04-23T23:10:17.526Z,10.16
2023-04-23T23:12:48.373Z,10.16
2023-04-23T23:15:19.054Z,10.17
2023-04-23T23:17:52.861Z,10.17
2023-04-23T23:20:23.780Z,10.07
2023-04-23T23:22:54.831Z,10.07
2023-04-23T23:25:28.555Z,10.07
2023-04-23T23:27:59.395Z,10.11
2023-04-23T23:30:30.103Z,10.06
2023-04-23T23:33:04.002Z,9.97
2023-04-23T23:35:34.851Z,10.04
2023-04-23T23:38:05.724Z,10.04
2023-04-23T23:40:36.512Z,10.07
2023-04-23T23:43:07.379Z,9.99
2023-04-23T23:45:38.194Z,9.88
2023-04-23T23:48:11.839Z,9.89
2023-04-23T23:50:42.852Z,9.86
2023-04-23T23:53:13.654Z,9.90
2023-04-23T23:55:44.303Z,9.93
2023-04-23T23:58:15.058Z,9.96
